sensor_id;sensor_type;location;lat;lon;timestamp;P1;durP1;ratioP1;P2;durP2;ratioP2
21802;SDS011;18591;47.080;22.214;2022-09-02T00:01:10;7.47;;;4.47;;
21802;SDS011;18591;47.080;22.214;2022-09-02T00:03:15;10.38;;;4.85;;
21802;SDS011;18591;47.080;22.214;2022-09-02T00:05:18;6.38;;;4.00;;
21802;SDS011;18591;47.080;22.214;2022-09-02T00:07:21;6.90;;;4.30;;
21802;SDS011;18591;47.080;22.214;2022-09-02T00:09:24;6.72;;;4.25;;
21802;SDS011;18591;47.080;22.214;2022-09-02T00:11:28;8.55;;;3.88;;
21802;SDS011;18591;47.080;22.214;2022-09-02T00:13:32;8.45;;;4.38;;
21802;SDS011;18591;47.080;22.214;2022-09-02T00:15:36;8.40;;;3.85;;
21802;SDS011;18591;47.080;22.214;2022-09-02T00:17:39;4.63;;;3.70;;
21802;SDS011;18591;47.080;22.214;2022-09-02T00:19:43;7.57;;;3.53;;
21802;SDS011;18591;47.080;22.214;2022-09-02T00:21:45;6.63;;;4.30;;
21802;SDS011;18591;47.080;22.214;2022-09-02T00:23:48;7.68;;;3.97;;
21802;SDS011;18591;47.080;22.214;2022-09-02T00:25:50;5.72;;;4.20;;
21802;SDS011;18591;47.080;22.214;2022-09-02T00:27:53;6.75;;;4.18;;
21802;SDS011;18591;47.080;22.214;2022-09-02T00:29:55;5.93;;;4.28;;
21802;SDS011;18591;47.080;22.214;2022-09-02T00:31:57;6.60;;;4.20;;
21802;SDS011;18591;47.080;22.214;2022-09-02T00:34:00;7.72;;;4.10;;
21802;SDS011;18591;47.080;22.214;2022-09-02T00:36:04;6.07;;;4.22;;
21802;SDS011;18591;47.080;22.214;2022-09-02T00:38:08;6.07;;;3.75;;
21802;SDS011;18591;47.080;22.214;2022-09-02T00:40:11;6.78;;;4.53;;
21802;SDS011;18591;47.080;22.214;2022-09-02T00:42:14;5.38;;;3.88;;
21802;SDS011;18591;47.080;22.214;2022-09-02T00:44:20;6.53;;;3.80;;
21802;SDS011;18591;47.080;22.214;2022-09-02T00:46:23;5.05;;;4.38;;
21802;SDS011;18591;47.080;22.214;2022-09-02T00:48:31;6.53;;;4.45;;
21802;SDS011;18591;47.080;22.214;2022-09-02T00:50:35;6.22;;;4.40;;
21802;SDS011;18591;47.080;22.214;2022-09-02T00:52:39;6.40;;;4.80;;
21802;SDS011;18591;47.080;22.214;2022-09-02T00:54:53;5.20;;;4.35;;
21802;SDS011;18591;47.080;22.214;2022-09-02T00:56:59;7.00;;;5.03;;
21802;SDS011;18591;47.080;22.214;2022-09-02T00:59:12;6.10;;;4.70;;
21802;SDS011;18591;47.080;22.214;2022-09-02T01:01:27;8.15;;;4.68;;
21802;SDS011;18591;47.080;22.214;2022-09-02T01:03:31;5.68;;;4.45;;
21802;SDS011;18591;47.080;22.214;2022-09-02T01:05:35;7.03;;;5.22;;
21802;SDS011;18591;47.080;22.214;2022-09-02T01:07:44;7.68;;;5.38;;
21802;SDS011;18591;47.080;22.214;2022-09-02T01:09:47;5.45;;;4.85;;
21802;SDS011;18591;47.080;22.214;2022-09-02T01:11:51;7.85;;;4.53;;
21802;SDS011;18591;47.080;22.214;2022-09-02T01:13:55;5.55;;;4.75;;
21802;SDS011;18591;47.080;22.214;2022-09-02T01:16:00;9.40;;;5.38;;
21802;SDS011;18591;47.080;22.214;2022-09-02T01:18:07;8.73;;;5.45;;
21802;SDS011;18591;47.080;22.214;2022-09-02T01:20:13;7.60;;;5.05;;
21802;SDS011;18591;47.080;22.214;2022-09-02T01:22:19;7.90;;;4.97;;
21802;SDS011;18591;47.080;22.214;2022-09-02T01:24:25;9.07;;;5.05;;
21802;SDS011;18591;47.080;22.214;2022-09-02T01:26:31;5.80;;;4.85;;
21802;SDS011;18591;47.080;22.214;2022-09-02T01:28:35;7.13;;;4.55;;
21802;SDS011;18591;47.080;22.214;2022-09-02T01:30:39;5.45;;;4.82;;
21802;SDS011;18591;47.080;22.214;2022-09-02T01:32:45;6.28;;;4.35;;
21802;SDS011;18591;47.080;22.214;2022-09-02T01:34:47;6.75;;;4.32;;
21802;SDS011;18591;47.080;22.214;2022-09-02T01:36:50;6.85;;;4.13;;
21802;SDS011;18591;47.080;22.214;2022-09-02T01:38:53;8.18;;;4.88;;
21802;SDS011;18591;47.080;22.214;2022-09-02T01:40:55;7.78;;;3.90;;
21802;SDS011;18591;47.080;22.214;2022-09-02T01:43:00;7.53;;;4.07;;
21802;SDS011;18591;47.080;22.214;2022-09-02T01:45:07;7.72;;;5.20;;
21802;SDS011;18591;47.080;22.214;2022-09-02T01:47:10;8.43;;;4.25;;
21802;SDS011;18591;47.080;22.214;2022-09-02T01:49:19;7.75;;;5.18;;
21802;SDS011;18591;47.080;22.214;2022-09-02T01:51:22;7.18;;;4.43;;
21802;SDS011;18591;47.080;22.214;2022-09-02T01:53:25;7.63;;;4.00;;
21802;SDS011;18591;47.080;22.214;2022-09-02T01:55:31;6.78;;;4.53;;
21802;SDS011;18591;47.080;22.214;2022-09-02T01:57:34;10.32;;;5.80;;
21802;SDS011;18591;47.080;22.214;2022-09-02T01:59:38;5.25;;;4.30;;
21802;SDS011;18591;47.080;22.214;2022-09-02T02:01:44;6.60;;;4.20;;
21802;SDS011;18591;47.080;22.214;2022-09-02T02:03:47;5.40;;;4.50;;
21802;SDS011;18591;47.080;22.214;2022-09-02T02:05:50;7.38;;;5.22;;
21802;SDS011;18591;47.080;22.214;2022-09-02T02:07:53;8.20;;;4.63;;
21802;SDS011;18591;47.080;22.214;2022-09-02T02:09:56;6.28;;;4.63;;
21802;SDS011;18591;47.080;22.214;2022-09-02T02:12:01;6.13;;;5.25;;
21802;SDS011;18591;47.080;22.214;2022-09-02T02:14:04;7.38;;;5.30;;
21802;SDS011;18591;47.080;22.214;2022-09-02T02:16:07;6.90;;;5.32;;
21802;SDS011;18591;47.080;22.214;2022-09-02T02:18:11;7.20;;;5.57;;
21802;SDS011;18591;47.080;22.214;2022-09-02T02:20:14;9.07;;;5.25;;
21802;SDS011;18591;47.080;22.214;2022-09-02T02:22:18;8.02;;;5.32;;
21802;SDS011;18591;47.080;22.214;2022-09-02T02:24:23;7.10;;;4.70;;
21802;SDS011;18591;47.080;22.214;2022-09-02T02:26:26;6.75;;;5.28;;
21802;SDS011;18591;47.080;22.214;2022-09-02T02:28:30;4.75;;;3.92;;
21802;SDS011;18591;47.080;22.214;2022-09-02T02:30:33;4.93;;;4.38;;
21802;SDS011;18591;47.080;22.214;2022-09-02T02:32:37;6.72;;;4.80;;
21802;SDS011;18591;47.080;22.214;2022-09-02T02:34:39;4.60;;;4.20;;
21802;SDS011;18591;47.080;22.214;2022-09-02T02:36:42;5.75;;;4.28;;
21802;SDS011;18591;47.080;22.214;2022-09-02T02:38:44;6.05;;;5.22;;
21802;SDS011;18591;47.080;22.214;2022-09-02T02:40:47;6.90;;;4.68;;
21802;SDS011;18591;47.080;22.214;2022-09-02T02:42:50;6.63;;;4.65;;
21802;SDS011;18591;47.080;22.214;2022-09-02T02:44:56;5.78;;;4.80;;
21802;SDS011;18591;47.080;22.214;2022-09-02T02:46:58;4.93;;;4.40;;
21802;SDS011;18591;47.080;22.214;2022-09-02T02:49:01;4.35;;;3.95;;
21802;SDS011;18591;47.080;22.214;2022-09-02T02:51:07;5.95;;;3.75;;
21802;SDS011;18591;47.080;22.214;2022-09-02T02:53:11;8.05;;;4.93;;
21802;SDS011;18591;47.080;22.214;2022-09-02T02:55:14;6.68;;;4.20;;
21802;SDS011;18591;47.080;22.214;2022-09-02T02:57:18;4.45;;;3.15;;
21802;SDS011;18591;47.080;22.214;2022-09-02T02:59:20;6.32;;;4.18;;
21802;SDS011;18591;47.080;22.214;2022-09-02T03:01:22;4.32;;;3.67;;
21802;SDS011;18591;47.080;22.214;2022-09-02T03:03:28;7.93;;;4.43;;
21802;SDS011;18591;47.080;22.214;2022-09-02T03:05:31;4.22;;;3.63;;
21802;SDS011;18591;47.080;22.214;2022-09-02T03:07:39;3.72;;;3.33;;
21802;SDS011;18591;47.080;22.214;2022-09-02T03:09:41;4.20;;;3.67;;
21802;SDS011;18591;47.080;22.214;2022-09-02T03:11:44;5.22;;;3.60;;
21802;SDS011;18591;47.080;22.214;2022-09-02T03:13:50;3.63;;;3.30;;
21802;SDS011;18591;47.080;22.214;2022-09-02T03:15:53;4.35;;;3.90;;
21802;SDS011;18591;47.080;22.214;2022-09-02T03:17:56;3.53;;;3.10;;
21802;SDS011;18591;47.080;22.214;2022-09-02T03:19:58;7.57;;;3.80;;
21802;SDS011;18591;47.080;22.214;2022-09-02T03:22:04;3.65;;;3.35;;
21802;SDS011;18591;47.080;22.214;2022-09-02T03:24:08;5.55;;;3.25;;
21802;SDS011;18591;47.080;22.214;2022-09-02T03:26:14;4.18;;;3.38;;
21802;SDS011;18591;47.080;22.214;2022-09-02T03:28:20;3.13;;;2.80;;
21802;SDS011;18591;47.080;22.214;2022-09-02T03:30:24;3.40;;;3.10;;
21802;SDS011;18591;47.080;22.214;2022-09-02T03:32:30;3.38;;;3.08;;
21802;SDS011;18591;47.080;22.214;2022-09-02T03:34:32;4.63;;;3.55;;
21802;SDS011;18591;47.080;22.214;2022-09-02T03:36:36;3.35;;;3.05;;
21802;SDS011;18591;47.080;22.214;2022-09-02T03:38:41;4.53;;;3.22;;
21802;SDS011;18591;47.080;22.214;2022-09-02T03:40:44;7.72;;;3.97;;
21802;SDS011;18591;47.080;22.214;2022-09-02T03:42:46;5.15;;;3.30;;
21802;SDS011;18591;47.080;22.214;2022-09-02T03:44:49;3.42;;;2.88;;
21802;SDS011;18591;47.080;22.214;2022-09-02T03:46:52;3.65;;;3.15;;
21802;SDS011;18591;47.080;22.214;2022-09-02T03:48:54;4.15;;;2.88;;
21802;SDS011;18591;47.080;22.214;2022-09-02T03:50:56;4.32;;;2.92;;
21802;SDS011;18591;47.080;22.214;2022-09-02T03:52:59;2.78;;;2.58;;
21802;SDS011;18591;47.080;22.214;2022-09-02T03:55:03;3.17;;;2.85;;
21802;SDS011;18591;47.080;22.214;2022-09-02T03:57:07;3.17;;;2.80;;
21802;SDS011;18591;47.080;22.214;2022-09-02T03:59:12;3.58;;;3.28;;
21802;SDS011;18591;47.080;22.214;2022-09-02T04:01:15;3.38;;;3.00;;
21802;SDS011;18591;47.080;22.214;2022-09-02T04:03:20;2.88;;;2.45;;
21802;SDS011;18591;47.080;22.214;2022-09-02T04:05:23;3.28;;;2.90;;
21802;SDS011;18591;47.080;22.214;2022-09-02T04:07:28;3.17;;;2.45;;
21802;SDS011;18591;47.080;22.214;2022-09-02T04:09:30;4.85;;;3.20;;
21802;SDS011;18591;47.080;22.214;2022-09-02T04:11:33;3.13;;;2.35;;
21802;SDS011;18591;47.080;22.214;2022-09-02T04:13:36;5.00;;;3.20;;
21802;SDS011;18591;47.080;22.214;2022-09-02T04:15:41;4.38;;;2.50;;
21802;SDS011;18591;47.080;22.214;2022-09-02T04:17:45;3.75;;;2.22;;
21802;SDS011;18591;47.080;22.214;2022-09-02T04:19:49;2.95;;;2.50;;
21802;SDS011;18591;47.080;22.214;2022-09-02T04:21:51;2.80;;;2.55;;
21802;SDS011;18591;47.080;22.214;2022-09-02T04:23:54;2.40;;;2.20;;
21802;SDS011;18591;47.080;22.214;2022-09-02T04:25:57;2.42;;;2.13;;
21802;SDS011;18591;47.080;22.214;2022-09-02T04:28:04;3.55;;;2.25;;
21802;SDS011;18591;47.080;22.214;2022-09-02T04:30:07;7.53;;;2.65;;
21802;SDS011;18591;47.080;22.214;2022-09-02T04:32:13;5.68;;;2.47;;
21802;SDS011;18591;47.080;22.214;2022-09-02T04:34:15;3.17;;;2.53;;
21802;SDS011;18591;47.080;22.214;2022-09-02T04:36:20;4.18;;;2.17;;
21802;SDS011;18591;47.080;22.214;2022-09-02T04:38:27;2.30;;;2.10;;
21802;SDS011;18591;47.080;22.214;2022-09-02T04:40:38;2.50;;;2.15;;
21802;SDS011;18591;47.080;22.214;2022-09-02T04:42:41;2.47;;;2.28;;
21802;SDS011;18591;47.080;22.214;2022-09-02T04:44:44;3.03;;;2.42;;
21802;SDS011;18591;47.080;22.214;2022-09-02T04:46:47;2.80;;;1.65;;
21802;SDS011;18591;47.080;22.214;2022-09-02T04:48:53;7.10;;;2.80;;
21802;SDS011;18591;47.080;22.214;2022-09-02T04:50:56;3.67;;;1.90;;
21802;SDS011;18591;47.080;22.214;2022-09-02T04:52:59;2.78;;;2.03;;
21802;SDS011;18591;47.080;22.214;2022-09-02T04:55:07;2.00;;;1.83;;
21802;SDS011;18591;47.080;22.214;2022-09-02T04:57:11;2.55;;;1.90;;
21802;SDS011;18591;47.080;22.214;2022-09-02T04:59:14;2.05;;;1.60;;
21802;SDS011;18591;47.080;22.214;2022-09-02T05:01:29;3.20;;;2.08;;
21802;SDS011;18591;47.080;22.214;2022-09-02T05:03:39;3.85;;;2.33;;
21802;SDS011;18591;47.080;22.214;2022-09-02T05:05:42;2.35;;;2.15;;
21802;SDS011;18591;47.080;22.214;2022-09-02T05:07:49;2.42;;;1.70;;
21802;SDS011;18591;47.080;22.214;2022-09-02T05:09:55;2.22;;;2.03;;
21802;SDS011;18591;47.080;22.214;2022-09-02T05:12:00;2.22;;;1.38;;
21802;SDS011;18591;47.080;22.214;2022-09-02T05:14:34;1.75;;;1.65;;
21802;SDS011;18591;47.080;22.214;2022-09-02T05:16:42;2.42;;;2.17;;
21802;SDS011;18591;47.080;22.214;2022-09-02T05:18:50;2.83;;;1.50;;
21802;SDS011;18591;47.080;22.214;2022-09-02T05:20:55;5.00;;;1.70;;
21802;SDS011;18591;47.080;22.214;2022-09-02T05:22:57;3.05;;;1.42;;
21802;SDS011;18591;47.080;22.214;2022-09-02T05:25:00;3.22;;;1.38;;
21802;SDS011;18591;47.080;22.214;2022-09-02T05:27:03;2.92;;;1.77;;
21802;SDS011;18591;47.080;22.214;2022-09-02T05:29:10;1.52;;;1.40;;
21802;SDS011;18591;47.080;22.214;2022-09-02T05:31:16;1.75;;;1.63;;
21802;SDS011;18591;47.080;22.214;2022-09-02T05:33:22;1.60;;;1.50;;
21802;SDS011;18591;47.080;22.214;2022-09-02T05:35:24;2.05;;;1.65;;
21802;SDS011;18591;47.080;22.214;2022-09-02T05:37:26;1.40;;;1.10;;
21802;SDS011;18591;47.080;22.214;2022-09-02T05:39:31;1.83;;;1.70;;
21802;SDS011;18591;47.080;22.214;2022-09-02T05:41:34;2.28;;;1.83;;
21802;SDS011;18591;47.080;22.214;2022-09-02T05:43:39;2.42;;;1.70;;
21802;SDS011;18591;47.080;22.214;2022-09-02T05:45:51;2.45;;;1.60;;
21802;SDS011;18591;47.080;22.214;2022-09-02T05:47:53;1.80;;;1.60;;
21802;SDS011;18591;47.080;22.214;2022-09-02T05:49:59;2.88;;;1.55;;
21802;SDS011;18591;47.080;22.214;2022-09-02T05:52:07;1.25;;;1.15;;
21802;SDS011;18591;47.080;22.214;2022-09-02T05:54:18;1.17;;;1.08;;
21802;SDS011;18591;47.080;22.214;2022-09-02T05:56:27;2.33;;;1.70;;
21802;SDS011;18591;47.080;22.214;2022-09-02T05:58:30;1.67;;;1.40;;
21802;SDS011;18591;47.080;22.214;2022-09-02T06:00:33;2.13;;;1.95;;
21802;SDS011;18591;47.080;22.214;2022-09-02T06:02:35;3.00;;;2.00;;
21802;SDS011;18591;47.080;22.214;2022-09-02T06:04:38;2.70;;;2.45;;
21802;SDS011;18591;47.080;22.214;2022-09-02T06:06:43;3.45;;;2.47;;
21802;SDS011;18591;47.080;22.214;2022-09-02T06:08:49;2.33;;;2.08;;
21802;SDS011;18591;47.080;22.214;2022-09-02T06:10:51;1.83;;;1.73;;
21802;SDS011;18591;47.080;22.214;2022-09-02T06:12:56;1.60;;;1.50;;
21802;SDS011;18591;47.080;22.214;2022-09-02T06:15:01;2.97;;;2.33;;
21802;SDS011;18591;47.080;22.214;2022-09-02T06:17:04;3.33;;;2.47;;
21802;SDS011;18591;47.080;22.214;2022-09-02T06:19:20;2.10;;;1.88;;
21802;SDS011;18591;47.080;22.214;2022-09-02T06:21:25;2.30;;;2.10;;
21802;SDS011;18591;47.080;22.214;2022-09-02T06:23:29;2.22;;;2.10;;
21802;SDS011;18591;47.080;22.214;2022-09-02T06:25:36;3.67;;;2.80;;
21802;SDS011;18591;47.080;22.214;2022-09-02T06:27:41;2.70;;;2.50;;
21802;SDS011;18591;47.080;22.214;2022-09-02T06:29:45;2.50;;;2.17;;
21802;SDS011;18591;47.080;22.214;2022-09-02T06:31:52;2.20;;;1.98;;
21802;SDS011;18591;47.080;22.214;2022-09-02T06:33:58;3.75;;;1.63;;
21802;SDS011;18591;47.080;22.214;2022-09-02T06:36:06;1.50;;;1.40;;
21802;SDS011;18591;47.080;22.214;2022-09-02T06:38:11;1.92;;;1.73;;
21802;SDS011;18591;47.080;22.214;2022-09-02T06:40:16;4.30;;;1.63;;
21802;SDS011;18591;47.080;22.214;2022-09-02T06:42:21;1.65;;;1.55;;
21802;SDS011;18591;47.080;22.214;2022-09-02T06:45:03;6.25;;;3.20;;
21802;SDS011;18591;47.080;22.214;2022-09-02T06:47:08;6.00;;;2.85;;
21802;SDS011;18591;47.080;22.214;2022-09-02T06:49:12;7.82;;;2.88;;
21802;SDS011;18591;47.080;22.214;2022-09-02T06:51:22;5.32;;;2.30;;
21802;SDS011;18591;47.080;22.214;2022-09-02T06:53:29;1.65;;;1.55;;
21802;SDS011;18591;47.080;22.214;2022-09-02T06:55:35;2.83;;;1.98;;
21802;SDS011;18591;47.080;22.214;2022-09-02T06:57:39;2.03;;;1.92;;
21802;SDS011;18591;47.080;22.214;2022-09-02T06:59:45;1.70;;;1.60;;
21802;SDS011;18591;47.080;22.214;2022-09-02T07:01:50;1.17;;;1.08;;
21802;SDS011;18591;47.080;22.214;2022-09-02T07:03:56;1.90;;;1.38;;
21802;SDS011;18591;47.080;22.214;2022-09-02T07:06:17;3.10;;;1.20;;
21802;SDS011;18591;47.080;22.214;2022-09-02T07:08:25;1.75;;;1.55;;
21802;SDS011;18591;47.080;22.214;2022-09-02T07:10:28;2.53;;;1.67;;
21802;SDS011;18591;47.080;22.214;2022-09-02T07:12:30;2.50;;;1.20;;
21802;SDS011;18591;47.080;22.214;2022-09-02T07:14:41;2.25;;;1.58;;
21802;SDS011;18591;47.080;22.214;2022-09-02T07:16:47;2.97;;;1.52;;
21802;SDS011;18591;47.080;22.214;2022-09-02T07:18:52;1.90;;;1.60;;
21802;SDS011;18591;47.080;22.214;2022-09-02T07:20:55;1.77;;;1.10;;
21802;SDS011;18591;47.080;22.214;2022-09-02T07:22:58;2.40;;;1.17;;
21802;SDS011;18591;47.080;22.214;2022-09-02T07:25:04;4.10;;;1.50;;
21802;SDS011;18591;47.080;22.214;2022-09-02T07:27:09;1.88;;;1.30;;
21802;SDS011;18591;47.080;22.214;2022-09-02T07:29:13;1.65;;;1.08;;
21802;SDS011;18591;47.080;22.214;2022-09-02T07:31:18;3.65;;;1.58;;
21802;SDS011;18591;47.080;22.214;2022-09-02T07:33:21;2.72;;;1.38;;
21802;SDS011;18591;47.080;22.214;2022-09-02T07:35:24;1.55;;;1.20;;
21802;SDS011;18591;47.080;22.214;2022-09-02T07:37:26;1.98;;;1.20;;
21802;SDS011;18591;47.080;22.214;2022-09-02T07:39:29;3.67;;;1.60;;
21802;SDS011;18591;47.080;22.214;2022-09-02T07:41:32;6.38;;;1.70;;
21802;SDS011;18591;47.080;22.214;2022-09-02T07:43:36;3.85;;;1.42;;
21802;SDS011;18591;47.080;22.214;2022-09-02T07:45:39;2.05;;;1.33;;
21802;SDS011;18591;47.080;22.214;2022-09-02T07:47:44;4.20;;;1.33;;
21802;SDS011;18591;47.080;22.214;2022-09-02T07:49:48;2.50;;;0.90;;
21802;SDS011;18591;47.080;22.214;2022-09-02T07:52:11;6.85;;;1.40;;
21802;SDS011;18591;47.080;22.214;2022-09-02T07:54:14;1.75;;;1.25;;
21802;SDS011;18591;47.080;22.214;2022-09-02T07:56:18;2.22;;;1.48;;
21802;SDS011;18591;47.080;22.214;2022-09-02T07:58:21;1.60;;;0.80;;
21802;SDS011;18591;47.080;22.214;2022-09-02T08:00:24;1.95;;;1.15;;
21802;SDS011;18591;47.080;22.214;2022-09-02T08:02:34;3.47;;;1.10;;
21802;SDS011;18591;47.080;22.214;2022-09-02T08:04:37;1.83;;;0.95;;
21802;SDS011;18591;47.080;22.214;2022-09-02T08:06:41;1.50;;;0.93;;
21802;SDS011;18591;47.080;22.214;2022-09-02T08:08:43;1.30;;;1.00;;
21802;SDS011;18591;47.080;22.214;2022-09-02T08:10:50;1.50;;;1.10;;
21802;SDS011;18591;47.080;22.214;2022-09-02T08:12:52;4.72;;;1.20;;
21802;SDS011;18591;47.080;22.214;2022-09-02T08:14:55;1.20;;;1.10;;
21802;SDS011;18591;47.080;22.214;2022-09-02T08:16:59;2.47;;;1.08;;
21802;SDS011;18591;47.080;22.214;2022-09-02T08:19:01;1.52;;;0.93;;
21802;SDS011;18591;47.080;22.214;2022-09-02T08:21:04;4.18;;;1.33;;
21802;SDS011;18591;47.080;22.214;2022-09-02T08:23:08;2.53;;;0.82;;
21802;SDS011;18591;47.080;22.214;2022-09-02T08:25:26;2.63;;;1.27;;
21802;SDS011;18591;47.080;22.214;2022-09-02T08:27:28;3.58;;;1.15;;
21802;SDS011;18591;47.080;22.214;2022-09-02T08:29:34;2.88;;;1.48;;
21802;SDS011;18591;47.080;22.214;2022-09-02T08:31:36;2.95;;;1.00;;
21802;SDS011;18591;47.080;22.214;2022-09-02T08:33:40;2.08;;;1.27;;
21802;SDS011;18591;47.080;22.214;2022-09-02T08:35:43;6.20;;;1.60;;
21802;SDS011;18591;47.080;22.214;2022-09-02T08:37:46;6.65;;;1.95;;
21802;SDS011;18591;47.080;22.214;2022-09-02T08:39:48;2.78;;;1.33;;
21802;SDS011;18591;47.080;22.214;2022-09-02T08:42:00;2.25;;;1.58;;
21802;SDS011;18591;47.080;22.214;2022-09-02T08:44:18;2.60;;;1.20;;
21802;SDS011;18591;47.080;22.214;2022-09-02T08:46:23;2.95;;;1.05;;
21802;SDS011;18591;47.080;22.214;2022-09-02T08:50:43;3.05;;;1.10;;
21802;SDS011;18591;47.080;22.214;2022-09-02T08:55:18;3.40;;;1.33;;
21802;SDS011;18591;47.080;22.214;2022-09-02T08:57:27;7.43;;;1.30;;
21802;SDS011;18591;47.080;22.214;2022-09-02T08:59:31;2.55;;;1.13;;
21802;SDS011;18591;47.080;22.214;2022-09-02T09:04:03;3.35;;;1.40;;
21802;SDS011;18591;47.080;22.214;2022-09-02T09:06:16;2.20;;;1.05;;
21802;SDS011;18591;47.080;22.214;2022-09-02T09:11:14;2.72;;;1.00;;
21802;SDS011;18591;47.080;22.214;2022-09-02T09:16:54;1.23;;;0.80;;
21802;SDS011;18591;47.080;22.214;2022-09-02T09:18:37;1.90;;;1.08;;
21802;SDS011;18591;47.080;22.214;2022-09-02T09:20:46;1.25;;;0.85;;
21802;SDS011;18591;47.080;22.214;2022-09-02T09:22:50;1.63;;;1.00;;
21802;SDS011;18591;47.080;22.214;2022-09-02T09:24:59;3.30;;;1.45;;
21802;SDS011;18591;47.080;22.214;2022-09-02T09:27:03;1.73;;;0.93;;
21802;SDS011;18591;47.080;22.214;2022-09-02T09:29:09;4.05;;;0.93;;
21802;SDS011;18591;47.080;22.214;2022-09-02T09:31:21;0.80;;;0.40;;
21802;SDS011;18591;47.080;22.214;2022-09-02T09:33:30;1.90;;;0.90;;
21802;SDS011;18591;47.080;22.214;2022-09-02T09:35:48;2.33;;;0.85;;
21802;SDS011;18591;47.080;22.214;2022-09-02T09:37:54;0.95;;;0.80;;
21802;SDS011;18591;47.080;22.214;2022-09-02T09:39:56;1.05;;;0.90;;
21802;SDS011;18591;47.080;22.214;2022-09-02T09:42:10;1.33;;;0.80;;
21802;SDS011;18591;47.080;22.214;2022-09-02T09:44:33;6.88;;;0.60;;
21802;SDS011;18591;47.080;22.214;2022-09-02T09:46:38;5.85;;;0.80;;
21802;SDS011;18591;47.080;22.214;2022-09-02T09:48:46;4.57;;;1.27;;
21802;SDS011;18591;47.080;22.214;2022-09-02T09:53:12;2.58;;;0.45;;
21802;SDS011;18591;47.080;22.214;2022-09-02T09:55:26;3.05;;;1.20;;
21802;SDS011;18591;47.080;22.214;2022-09-02T09:57:28;2.25;;;0.93;;
21802;SDS011;18591;47.080;22.214;2022-09-02T10:01:49;2.40;;;1.20;;
21802;SDS011;18591;47.080;22.214;2022-09-02T10:06:20;1.27;;;0.85;;
21802;SDS011;18591;47.080;22.214;2022-09-02T10:08:32;1.55;;;1.20;;
21802;SDS011;18591;47.080;22.214;2022-09-02T10:10:35;2.00;;;0.82;;
21802;SDS011;18591;47.080;22.214;2022-09-02T10:12:37;1.30;;;0.80;;
21802;SDS011;18591;47.080;22.214;2022-09-02T10:14:43;5.53;;;0.90;;
21802;SDS011;18591;47.080;22.214;2022-09-02T10:19:02;1.23;;;0.50;;
21802;SDS011;18591;47.080;22.214;2022-09-02T10:26:22;1.95;;;0.63;;
21802;SDS011;18591;47.080;22.214;2022-09-02T10:37:37;2.05;;;1.23;;
21802;SDS011;18591;47.080;22.214;2022-09-02T10:41:58;0.45;;;0.43;;
21802;SDS011;18591;47.080;22.214;2022-09-02T10:51:09;1.20;;;0.75;;
21802;SDS011;18591;47.080;22.214;2022-09-02T10:57:51;1.90;;;0.70;;
21802;SDS011;18591;47.080;22.214;2022-09-02T11:00:17;1.17;;;0.60;;
21802;SDS011;18591;47.080;22.214;2022-09-02T11:02:24;1.92;;;0.90;;
21802;SDS011;18591;47.080;22.214;2022-09-02T11:04:39;0.65;;;0.52;;
21802;SDS011;18591;47.080;22.214;2022-09-02T11:06:48;0.82;;;0.40;;
21802;SDS011;18591;47.080;22.214;2022-09-02T11:09:08;1.42;;;0.57;;
21802;SDS011;18591;47.080;22.214;2022-09-02T11:11:19;0.95;;;0.60;;
21802;SDS011;18591;47.080;22.214;2022-09-02T11:13:34;2.03;;;1.00;;
21802;SDS011;18591;47.080;22.214;2022-09-02T11:15:46;1.20;;;0.70;;
21802;SDS011;18591;47.080;22.214;2022-09-02T11:18:03;2.97;;;0.90;;
21802;SDS011;18591;47.080;22.214;2022-09-02T11:20:31;1.83;;;1.15;;
21802;SDS011;18591;47.080;22.214;2022-09-02T11:23:14;3.08;;;1.08;;
21802;SDS011;18591;47.080;22.214;2022-09-02T11:25:26;1.55;;;1.10;;
21802;SDS011;18591;47.080;22.214;2022-09-02T11:30:20;2.22;;;0.63;;
21802;SDS011;18591;47.080;22.214;2022-09-02T11:32:28;2.15;;;0.90;;
21802;SDS011;18591;47.080;22.214;2022-09-02T11:34:40;2.95;;;0.65;;
21802;SDS011;18591;47.080;22.214;2022-09-02T11:36:49;1.17;;;0.73;;
21802;SDS011;18591;47.080;22.214;2022-09-02T11:39:40;1.02;;;0.80;;
21802;SDS011;18591;47.080;22.214;2022-09-02T11:44:51;1.52;;;0.70;;
21802;SDS011;18591;47.080;22.214;2022-09-02T11:52:06;0.30;;;0.30;;
21802;SDS011;18591;47.080;22.214;2022-09-02T11:54:19;1.65;;;0.40;;
21802;SDS011;18591;47.080;22.214;2022-09-02T11:56:25;0.98;;;0.50;;
21802;SDS011;18591;47.080;22.214;2022-09-02T11:58:35;1.17;;;0.40;;
21802;SDS011;18591;47.080;22.214;2022-09-02T12:07:31;0.57;;;0.40;;
21802;SDS011;18591;47.080;22.214;2022-09-02T12:11:55;0.52;;;0.40;;
21802;SDS011;18591;47.080;22.214;2022-09-02T12:13:58;2.42;;;0.60;;
21802;SDS011;18591;47.080;22.214;2022-09-02T12:18:34;4.47;;;0.70;;
21802;SDS011;18591;47.080;22.214;2022-09-02T12:22:51;1.15;;;0.60;;
21802;SDS011;18591;47.080;22.214;2022-09-02T12:24:57;2.50;;;0.50;;
21802;SDS011;18591;47.080;22.214;2022-09-02T12:27:03;3.17;;;0.60;;
21802;SDS011;18591;47.080;22.214;2022-09-02T12:29:11;1.35;;;0.50;;
21802;SDS011;18591;47.080;22.214;2022-09-02T12:33:44;1.42;;;0.65;;
21802;SDS011;18591;47.080;22.214;2022-09-02T12:35:52;1.33;;;0.63;;
21802;SDS011;18591;47.080;22.214;2022-09-02T12:37:57;0.98;;;0.40;;
21802;SDS011;18591;47.080;22.214;2022-09-02T12:40:25;1.60;;;0.30;;
21802;SDS011;18591;47.080;22.214;2022-09-02T12:42:33;0.93;;;0.40;;
21802;SDS011;18591;47.080;22.214;2022-09-02T12:52:08;0.80;;;0.50;;
21802;SDS011;18591;47.080;22.214;2022-09-02T12:54:13;1.10;;;0.40;;
21802;SDS011;18591;47.080;22.214;2022-09-02T12:56:18;1.88;;;0.50;;
21802;SDS011;18591;47.080;22.214;2022-09-02T12:58:23;10.13;;;0.75;;
21802;SDS011;18591;47.080;22.214;2022-09-02T13:15:02;2.97;;;0.45;;
21802;SDS011;18591;47.080;22.214;2022-09-02T13:32:11;3.95;;;1.52;;
21802;SDS011;18591;47.080;22.214;2022-09-02T13:34:17;6.05;;;2.63;;
21802;SDS011;18591;47.080;22.214;2022-09-02T13:36:21;3.17;;;1.90;;
21802;SDS011;18591;47.080;22.214;2022-09-02T13:38:28;2.75;;;1.38;;
21802;SDS011;18591;47.080;22.214;2022-09-02T13:40:32;2.50;;;1.25;;
21802;SDS011;18591;47.080;22.214;2022-09-02T13:42:35;1.35;;;0.75;;
21802;SDS011;18591;47.080;22.214;2022-09-02T13:44:37;3.38;;;1.00;;
21802;SDS011;18591;47.080;22.214;2022-09-02T13:46:43;2.13;;;1.02;;
21802;SDS011;18591;47.080;22.214;2022-09-02T13:48:48;3.72;;;1.00;;
21802;SDS011;18591;47.080;22.214;2022-09-02T13:50:51;2.00;;;0.82;;
21802;SDS011;18591;47.080;22.214;2022-09-02T13:52:59;4.78;;;1.23;;
21802;SDS011;18591;47.080;22.214;2022-09-02T13:55:24;1.58;;;0.50;;
21802;SDS011;18591;47.080;22.214;2022-09-02T13:57:28;3.20;;;0.60;;
21802;SDS011;18591;47.080;22.214;2022-09-02T13:59:36;1.75;;;0.50;;
21802;SDS011;18591;47.080;22.214;2022-09-02T14:01:47;0.63;;;0.40;;
21802;SDS011;18591;47.080;22.214;2022-09-02T14:03:50;0.50;;;0.40;;
21802;SDS011;18591;47.080;22.214;2022-09-02T14:05:54;1.65;;;0.43;;
21802;SDS011;18591;47.080;22.214;2022-09-02T14:07:59;0.40;;;0.30;;
21802;SDS011;18591;47.080;22.214;2022-09-02T14:10:05;0.40;;;0.40;;
21802;SDS011;18591;47.080;22.214;2022-09-02T14:12:09;0.77;;;0.40;;
21802;SDS011;18591;47.080;22.214;2022-09-02T14:14:14;0.60;;;0.40;;
21802;SDS011;18591;47.080;22.214;2022-09-02T14:18:29;0.35;;;0.35;;
21802;SDS011;18591;47.080;22.214;2022-09-02T14:20:31;0.20;;;0.20;;
21802;SDS011;18591;47.080;22.214;2022-09-02T14:22:36;0.38;;;0.30;;
21802;SDS011;18591;47.080;22.214;2022-09-02T14:24:39;2.47;;;0.40;;